createdAt,value
2018-05-18T00:01:01.315Z,90.01
2018-05-18T00:03:28.787Z,90.98
2018-05-18T00:05:56.183Z,91.02
2018-05-18T00:08:23.586Z,90.78
2018-05-18T00:10:51.564Z,90.55
2018-05-18T00:13:18.956Z,90.53
2018-05-18T00:15:46.359Z,90.41
2018-05-18T00:18:13.761Z,90.73
2018-05-18T00:20:41.176Z,90.78
2018-05-18T00:23:08.605Z,90.68
2018-05-18T00:25:35.988Z,90.70
2018-05-18T00:28:03.454Z,91.20
2018-05-18T00:30:30.848Z,91.31
2018-05-18T00:32:58.232Z,92.67
2018-05-18T00:35:26.465Z,92.97
2018-05-18T00:37:53.845Z,92.90
2018-05-18T00:40:21.244Z,93.08
2018-05-18T00:42:48.643Z,93.60
2018-05-18T00:45:16.040Z,93.61
2018-05-18T00:47:43.436Z,93.74
2018-05-18T00:50:10.844Z,93.77
2018-05-18T00:52:38.234Z,93.81
2018-05-18T00:55:17.460Z,93.95
2018-05-18T00:57:44.907Z,93.91
2018-05-18T01:00:12.304Z,93.82
2018-05-18T01:02:39.701Z,93.81
2018-05-18T01:05:07.099Z,93.71
2018-05-18T01:10:08.309Z,93.89
2018-05-18T01:12:35.704Z,93.79
2018-05-18T01:15:03.134Z,93.81
2018-05-18T01:17:30.521Z,93.93
2018-05-18T01:19:57.923Z,94.04
2018-05-18T01:22:25.321Z,94.12
2018-05-18T01:24:52.800Z,94.12
2018-05-18T01:27:20.183Z,93.86
2018-05-18T01:29:47.584Z,93.82
2018-05-18T01:32:14.972Z,93.93
2018-05-18T01:34:42.414Z,93.78
2018-05-18T01:37:09.803Z,93.71
2018-05-18T01:39:37.712Z,93.64
2018-05-18T01:42:05.110Z,93.56
2018-05-18T01:44:32.728Z,93.56
2018-05-18T01:47:00.119Z,93.67
2018-05-18T01:49:27.510Z,93.60
2018-05-18T01:51:54.972Z,93.56
2018-05-18T01:54:22.361Z,93.52
2018-05-18T01:56:49.748Z,93.44
2018-05-18T01:59:17.848Z,93.39
2018-05-18T02:01:45.302Z,93.47
2018-05-18T02:04:12.691Z,93.45
2018-05-18T02:06:40.093Z,93.76
2018-05-18T02:09:07.475Z,93.87
2018-05-18T02:11:34.887Z,93.91
2018-05-18T02:14:02.271Z,94.00
2018-05-18T02:16:29.673Z,93.88
2018-05-18T02:18:57.354Z,93.76
2018-05-18T02:21:24.756Z,93.71
2018-05-18T02:23:52.147Z,93.62
2018-05-18T02:26:19.562Z,93.48
2018-05-18T02:28:46.966Z,93.43
2018-05-18T02:31:14.361Z,93.33
2018-05-18T02:33:41.758Z,93.31
2018-05-18T02:36:09.247Z,93.19
2018-05-18T02:38:36.632Z,93.09
2018-05-18T02:41:04.037Z,92.98
2018-05-18T02:43:31.432Z,92.87
2018-05-18T02:45:58.921Z,92.61
2018-05-18T02:48:26.309Z,92.36
2018-05-18T02:50:53.705Z,92.15
2018-05-18T02:53:21.107Z,91.96
2018-05-18T02:55:48.495Z,91.88
2018-05-18T02:58:15.903Z,91.94
2018-05-18T03:00:43.297Z,92.05
2018-05-18T03:03:10.741Z,91.92
2018-05-18T03:05:38.159Z,92.36
2018-05-18T03:08:05.561Z,93.23
2018-05-18T03:10:32.949Z,93.44
2018-05-18T03:13:01.494Z,93.78
2018-05-18T03:15:28.883Z,93.74
2018-05-18T03:17:56.271Z,93.75
2018-05-18T03:20:23.686Z,93.62
2018-05-18T03:22:51.351Z,93.31
2018-05-18T03:25:18.741Z,93.00
2018-05-18T03:27:46.147Z,93.36
2018-05-18T03:30:13.641Z,93.67
2018-05-18T03:32:41.040Z,93.53
2018-05-18T03:35:08.428Z,93.83
2018-05-18T03:37:35.823Z,93.68
2018-05-18T03:40:04.018Z,93.42
2018-05-18T03:42:32.416Z,93.25
2018-05-18T03:45:00.488Z,93.35
2018-05-18T03:47:27.887Z,93.57
2018-05-18T03:49:55.272Z,93.69
2018-05-18T03:52:22.677Z,93.72
2018-05-18T03:54:50.207Z,93.93
2018-05-18T03:57:17.623Z,93.87
2018-05-18T03:59:45.014Z,93.71
2018-05-18T04:02:24.219Z,93.49
2018-05-18T04:08:04.746Z,92.90
2018-05-18T04:10:32.141Z,92.87
2018-05-18T04:12:59.770Z,92.37
2018-05-18T04:15:27.155Z,91.63
2018-05-18T04:17:54.569Z,90.79
2018-05-18T04:20:22.030Z,90.67
2018-05-18T04:22:49.490Z,89.98
2018-05-18T04:25:16.904Z,87.90
2018-05-18T04:27:44.309Z,88.01
2018-05-18T04:30:11.808Z,88.04
2018-05-18T04:35:18.752Z,89.49
2018-05-18T04:37:47.092Z,89.73
2018-05-18T04:40:14.509Z,89.36
2018-05-18T04:42:41.969Z,89.00
2018-05-18T04:45:09.375Z,88.57
2018-05-18T04:47:36.817Z,88.74
2018-05-18T04:50:04.765Z,88.34
2018-05-18T04:52:32.173Z,88.39
2018-05-18T04:54:59.568Z,88.41
2018-05-18T04:57:27.213Z,88.24
2018-05-18T04:59:54.689Z,87.53
2018-05-18T05:02:22.155Z,87.36
2018-05-18T05:04:49.642Z,87.11
2018-05-18T05:07:17.106Z,84.51
2018-05-18T05:09:44.583Z,84.27
2018-05-18T05:12:12.760Z,84.42
2018-05-18T05:14:40.351Z,82.94
2018-05-18T05:17:08.213Z,81.97
2018-05-18T05:19:35.889Z,78.75
2018-05-18T05:22:03.370Z,74.15
2018-05-18T05:24:30.767Z,67.77
2018-05-18T05:26:58.176Z,63.10
2018-05-18T05:29:25.606Z,58.65
2018-05-18T05:31:53.007Z,55.64
2018-05-18T05:34:20.419Z,53.83
2018-05-18T05:36:47.857Z,55.42
2018-05-18T05:39:15.303Z,52.82
2018-05-18T05:41:42.708Z,53.59
2018-05-18T05:44:10.105Z,51.59
2018-05-18T05:46:37.520Z,52.04
2018-05-18T05:49:04.942Z,53.08
2018-05-18T05:51:32.343Z,51.38
2018-05-18T05:53:59.744Z,50.54
2018-05-18T05:56:27.168Z,49.76
2018-05-18T05:58:54.639Z,50.86
2018-05-18T06:01:22.037Z,48.30
2018-05-18T06:03:49.443Z,47.61
2018-05-18T06:06:17.032Z,47.70
2018-05-18T06:08:44.421Z,47.85
2018-05-18T06:11:11.822Z,49.09
2018-05-18T06:13:39.240Z,46.25
2018-05-18T06:16:06.852Z,45.43
2018-05-18T06:18:34.240Z,44.01
2018-05-18T06:21:01.776Z,41.43
2018-05-18T06:23:29.249Z,42.93
2018-05-18T06:25:56.644Z,43.11
2018-05-18T06:28:24.030Z,41.68
2018-05-18T06:30:51.427Z,47.97
2018-05-18T06:33:19.039Z,51.48
2018-05-18T06:35:46.449Z,54.65
2018-05-18T06:38:13.835Z,59.40
2018-05-18T06:40:41.250Z,61.13
2018-05-18T06:43:09.191Z,66.37
2018-05-18T06:45:36.597Z,67.43
2018-05-18T06:48:04.010Z,67.47
2018-05-18T06:50:31.596Z,65.85
2018-05-18T06:52:59.003Z,63.82
2018-05-18T06:55:26.395Z,64.62
2018-05-18T06:57:53.800Z,66.64
2018-05-18T07:00:21.801Z,67.69
2018-05-18T07:02:49.208Z,68.53
2018-05-18T07:05:16.599Z,67.15
2018-05-18T07:07:44.019Z,65.36
2018-05-18T07:10:11.451Z,68.03
2018-05-18T07:12:38.848Z,65.58
2018-05-18T07:15:06.235Z,66.25
2018-05-18T07:17:33.651Z,67.63
2018-05-18T07:20:01.101Z,70.08
2018-05-18T07:22:28.507Z,66.09
2018-05-18T07:24:55.892Z,67.70
2018-05-18T07:27:23.354Z,68.85
2018-05-18T07:29:50.753Z,68.57
2018-05-18T07:32:18.156Z,68.72
2018-05-18T07:34:45.540Z,71.24
2018-05-18T07:37:13.059Z,68.24
2018-05-18T07:39:40.456Z,69.15
2018-05-18T07:42:07.876Z,68.16
2018-05-18T07:44:35.308Z,66.45
2018-05-18T07:47:02.932Z,66.80
2018-05-18T07:49:30.325Z,66.68
2018-05-18T07:51:57.738Z,64.77
2018-05-18T07:54:25.259Z,65.67
2018-05-18T07:56:53.234Z,66.69
2018-05-18T07:59:20.657Z,64.58
2018-05-18T08:01:48.397Z,65.30
2018-05-18T08:04:15.788Z,63.84
2018-05-18T08:06:43.189Z,64.28
2018-05-18T08:09:10.604Z,63.60
2018-05-18T08:11:37.996Z,63.91
2018-05-18T08:14:05.398Z,63.61
2018-05-18T08:16:32.793Z,64.83
2018-05-18T08:19:00.648Z,62.28
2018-05-18T08:21:28.286Z,63.24
2018-05-18T08:23:55.601Z,62.09
2018-05-18T08:26:22.992Z,61.24
2018-05-18T08:29:02.308Z,63.59
2018-05-18T08:31:29.753Z,63.36
2018-05-18T08:33:57.154Z,62.01
2018-05-18T08:36:24.545Z,63.11
2018-05-18T08:38:52.119Z,63.05
2018-05-18T08:41:19.510Z,62.19
2018-05-18T08:43:46.908Z,61.29
2018-05-18T08:46:15.403Z,61.64
2018-05-18T08:48:42.810Z,61.80
2018-05-18T08:51:10.195Z,62.54
2018-05-18T08:53:37.608Z,60.25
2018-05-18T08:56:05.009Z,62.44
2018-05-18T08:58:32.407Z,62.97
2018-05-18T09:00:59.804Z,60.70
2018-05-18T09:03:27.231Z,58.27
2018-05-18T09:05:54.618Z,59.81
2018-05-18T09:08:22.027Z,58.48
2018-05-18T09:10:49.417Z,58.67
2018-05-18T09:13:16.837Z,59.75
2018-05-18T09:15:44.222Z,56.24
2018-05-18T09:18:11.627Z,56.32
2018-05-18T09:20:39.025Z,56.35
2018-05-18T09:23:07.393Z,58.28
2018-05-18T09:25:34.783Z,54.04
2018-05-18T09:28:02.225Z,54.72
2018-05-18T09:30:29.716Z,55.29
2018-05-18T09:32:57.125Z,53.21
2018-05-18T09:35:24.510Z,54.99
2018-05-18T09:37:52.341Z,56.08
2018-05-18T09:40:19.754Z,53.72
2018-05-18T09:42:47.479Z,55.15
2018-05-18T09:45:14.915Z,55.66
2018-05-18T09:47:42.359Z,56.23
2018-05-18T09:50:10.872Z,53.19
2018-05-18T09:52:38.263Z,53.82
2018-05-18T09:55:05.734Z,55.57
2018-05-18T09:57:33.611Z,56.77
2018-05-18T10:00:01.015Z,55.09
2018-05-18T10:02:28.824Z,56.47
2018-05-18T10:04:57.000Z,51.70
2018-05-18T10:07:24.396Z,51.19
2018-05-18T10:09:51.786Z,50.92
2018-05-18T10:12:19.199Z,52.44
2018-05-18T10:14:46.577Z,50.75
2018-05-18T10:17:13.976Z,51.99
2018-05-18T10:19:41.393Z,52.72
2018-05-18T10:22:08.780Z,54.43
2018-05-18T10:24:36.177Z,55.61
2018-05-18T10:27:03.645Z,54.16
2018-05-18T10:29:31.012Z,55.24
2018-05-18T10:31:58.415Z,56.00
2018-05-18T10:34:25.823Z,56.54
2018-05-18T10:36:53.435Z,53.00
2018-05-18T10:39:20.843Z,54.22
2018-05-18T10:41:48.245Z,53.62
2018-05-18T10:44:15.630Z,52.85
2018-05-18T10:46:43.026Z,51.11
2018-05-18T10:49:11.097Z,51.09
2018-05-18T10:51:38.487Z,50.75
2018-05-18T10:54:05.948Z,50.21
2018-05-18T10:56:33.348Z,52.10
2018-05-18T10:59:00.736Z,52.36
2018-05-18T11:01:28.132Z,52.13
2018-05-18T11:03:55.541Z,52.30
2018-05-18T11:06:22.945Z,52.21
2018-05-18T11:08:50.462Z,53.01
2018-05-18T11:11:17.875Z,52.53
2018-05-18T11:13:45.351Z,51.76
2018-05-18T11:16:12.759Z,54.24
2018-05-18T11:18:40.152Z,54.34
2018-05-18T11:21:07.818Z,54.01
2018-05-18T11:23:35.295Z,48.00
2018-05-18T11:26:02.692Z,50.83
2018-05-18T11:28:30.084Z,47.96
2018-05-18T11:30:57.588Z,48.09
2018-05-18T11:33:24.991Z,51.57
2018-05-18T11:35:52.383Z,48.74
2018-05-18T11:38:19.812Z,47.98
2018-05-18T11:40:47.197Z,48.48
2018-05-18T11:43:14.589Z,50.53
2018-05-18T11:45:42.532Z,51.15
2018-05-18T11:48:10.025Z,51.45
2018-05-18T11:50:37.327Z,50.66
2018-05-18T11:53:04.713Z,50.23
2018-05-18T11:55:32.104Z,50.83
2018-05-18T11:57:59.535Z,49.46
2018-05-18T12:00:26.929Z,50.03
2018-05-18T12:02:54.392Z,50.61
2018-05-18T12:05:22.450Z,51.12
2018-05-18T12:07:49.872Z,51.12
2018-05-18T12:10:17.267Z,51.91
2018-05-18T12:12:44.651Z,53.71
2018-05-18T12:15:12.210Z,50.42
2018-05-18T12:17:39.630Z,48.42
2018-05-18T12:20:07.943Z,50.26
2018-05-18T12:22:35.506Z,49.28
2018-05-18T12:25:02.920Z,48.53
2018-05-18T12:27:30.314Z,48.99
2018-05-18T12:29:58.320Z,49.39
2018-05-18T12:32:28.051Z,49.26
2018-05-18T12:34:55.444Z,49.89
2018-05-18T12:37:22.901Z,48.66
2018-05-18T12:39:50.292Z,48.32
2018-05-18T12:42:17.700Z,48.37
2018-05-18T12:44:45.219Z,48.09
2018-05-18T12:47:12.548Z,47.36
2018-05-18T12:49:39.953Z,46.84
2018-05-18T12:52:07.352Z,48.10
2018-05-18T12:54:34.891Z,45.20
2018-05-18T12:57:02.298Z,47.18
2018-05-18T12:59:29.707Z,46.78
2018-05-18T13:01:57.072Z,43.92
2018-05-18T13:04:24.520Z,44.10
2018-05-18T13:06:51.914Z,44.15
2018-05-18T13:09:19.319Z,44.02
2018-05-18T13:11:46.752Z,44.00
2018-05-18T13:14:14.137Z,44.79
2018-05-18T13:16:41.526Z,48.40
2018-05-18T13:19:08.937Z,42.07
2018-05-18T13:21:37.217Z,44.37
2018-05-18T13:24:04.621Z,43.13
2018-05-18T13:26:32.003Z,41.06
2018-05-18T13:28:59.484Z,41.66
2018-05-18T13:31:26.852Z,43.50
2018-05-18T13:33:54.472Z,44.05
2018-05-18T13:36:22.591Z,43.47
2018-05-18T13:38:50.077Z,43.96
2018-05-18T13:41:17.896Z,43.51
2018-05-18T13:43:45.316Z,42.81
2018-05-18T13:46:12.921Z,44.17
2018-05-18T13:48:41.776Z,48.98
2018-05-18T13:51:09.180Z,44.15
2018-05-18T13:53:37.132Z,45.06
2018-05-18T13:56:04.972Z,43.14
2018-05-18T13:58:32.392Z,43.02
2018-05-18T14:00:59.769Z,42.34
2018-05-18T14:03:27.164Z,42.75
2018-05-18T14:05:54.559Z,42.68
2018-05-18T14:08:22.001Z,45.14
2018-05-18T14:10:50.076Z,44.72
2018-05-18T14:13:17.472Z,44.01
2018-05-18T14:15:44.888Z,43.91
2018-05-18T14:18:12.640Z,44.13
2018-05-18T14:20:40.045Z,43.51
2018-05-18T14:23:08.241Z,43.89
2018-05-18T14:25:36.107Z,43.35
2018-05-18T14:28:03.501Z,43.74
2018-05-18T14:30:31.415Z,42.06
2018-05-18T14:32:58.972Z,41.54
2018-05-18T14:35:26.376Z,42.78
2018-05-18T14:37:53.821Z,43.14
2018-05-18T14:40:21.178Z,42.92
2018-05-18T14:42:48.657Z,43.89
2018-05-18T14:45:16.057Z,42.96
2018-05-18T14:47:43.451Z,43.19
2018-05-18T14:50:10.880Z,42.97
2018-05-18T14:52:39.259Z,40.62
2018-05-18T14:55:06.652Z,42.03
2018-05-18T14:57:34.096Z,42.17
2018-05-18T15:00:01.495Z,43.34
2018-05-18T15:02:28.892Z,43.27
2018-05-18T15:04:56.290Z,44.43
2018-05-18T15:07:23.909Z,43.44
2018-05-18T15:09:51.307Z,42.64
2018-05-18T15:12:19.730Z,43.00
2018-05-18T15:14:47.142Z,43.54
2018-05-18T15:17:14.520Z,43.92
2018-05-18T15:19:41.934Z,44.42
2018-05-18T15:22:09.362Z,42.57
2018-05-18T15:24:36.787Z,41.00
2018-05-18T15:27:04.208Z,41.53
2018-05-18T15:29:31.592Z,42.48
2018-05-18T15:31:59.000Z,42.90
2018-05-18T15:34:27.270Z,43.13
2018-05-18T15:36:54.663Z,43.64
2018-05-18T15:39:22.056Z,43.77
2018-05-18T15:41:49.452Z,42.03
2018-05-18T15:44:16.863Z,40.49
2018-05-18T15:46:45.165Z,40.56
2018-05-18T15:49:12.551Z,42.10
2018-05-18T15:51:39.946Z,42.60
2018-05-18T15:54:07.334Z,43.04
2018-05-18T15:56:34.743Z,41.08
2018-05-18T15:59:02.717Z,40.64
2018-05-18T16:01:30.116Z,39.96
2018-05-18T16:03:58.110Z,41.37
2018-05-18T16:06:25.604Z,43.58
2018-05-18T16:08:53.007Z,40.68
2018-05-18T16:11:20.400Z,40.36
2018-05-18T16:13:47.804Z,42.27
2018-05-18T16:16:15.244Z,44.55
2018-05-18T16:18:42.632Z,43.43
2018-05-18T16:21:10.028Z,43.34
2018-05-18T16:23:37.424Z,42.69
2018-05-18T16:26:05.343Z,42.05
2018-05-18T16:28:32.737Z,43.04
2018-05-18T16:31:00.155Z,42.28
2018-05-18T16:33:27.582Z,43.04
2018-05-18T16:35:54.966Z,42.79
2018-05-18T16:38:22.379Z,41.82
2018-05-18T16:40:49.763Z,40.98
2018-05-18T16:43:17.169Z,41.96
2018-05-18T16:45:44.567Z,41.25
2018-05-18T16:48:11.970Z,42.82
2018-05-18T16:50:39.379Z,44.40
2018-05-18T16:53:06.860Z,41.35
2018-05-18T16:55:34.245Z,40.22
2018-05-18T16:58:01.735Z,40.51
2018-05-18T17:00:29.041Z,40.71
2018-05-18T17:02:56.443Z,41.29
2018-05-18T17:05:24.157Z,39.82
2018-05-18T17:07:51.565Z,41.45
2018-05-18T17:10:19.120Z,40.17
2018-05-18T17:12:46.520Z,40.94
2018-05-18T17:15:13.928Z,41.19
2018-05-18T17:17:41.331Z,41.25
2018-05-18T17:20:09.133Z,44.07
2018-05-18T17:22:36.542Z,46.17
2018-05-18T17:25:03.944Z,47.42
2018-05-18T17:27:32.000Z,47.39
2018-05-18T17:29:59.511Z,47.91
2018-05-18T17:32:26.928Z,49.43
2018-05-18T17:34:54.323Z,49.81
2018-05-18T17:37:21.721Z,50.85
2018-05-18T17:39:49.459Z,51.93
2018-05-18T17:42:16.881Z,51.65
2018-05-18T17:44:44.528Z,52.32
2018-05-18T17:47:12.371Z,52.34
2018-05-18T17:49:39.782Z,52.94
2018-05-18T17:52:07.183Z,53.26
2018-05-18T17:54:34.698Z,53.87
2018-05-18T17:57:02.088Z,53.83
2018-05-18T17:59:29.499Z,54.23
2018-05-18T18:01:57.538Z,54.17
2018-05-18T18:04:25.040Z,54.46
2018-05-18T18:06:52.800Z,55.04
2018-05-18T18:09:20.199Z,55.37
2018-05-18T18:11:47.720Z,55.99
2018-05-18T18:14:15.128Z,56.63
2018-05-18T18:16:42.524Z,56.44
2018-05-18T18:19:10.537Z,56.26
2018-05-18T18:21:38.623Z,56.12
2018-05-18T18:24:06.028Z,55.93
2018-05-18T18:26:35.285Z,56.35
2018-05-18T18:29:02.696Z,57.18
2018-05-18T18:31:31.008Z,56.49
2018-05-18T18:34:00.066Z,56.96
2018-05-18T18:36:28.244Z,57.44
2018-05-18T18:38:56.170Z,58.00
2018-05-18T18:41:23.620Z,58.68
2018-05-18T18:43:51.025Z,58.68
2018-05-18T18:46:18.419Z,58.53
2018-05-18T18:48:46.576Z,58.99
2018-05-18T18:51:14.774Z,59.17
2018-05-18T18:53:42.274Z,59.47
2018-05-18T18:56:09.772Z,59.73
2018-05-18T18:58:37.185Z,59.69
2018-05-18T19:01:04.943Z,60.43
2018-05-18T19:03:32.916Z,60.92
2018-05-18T19:06:01.428Z,60.93
2018-05-18T19:08:28.889Z,60.71
2018-05-18T19:10:57.303Z,61.25
2018-05-18T19:13:24.704Z,62.10
2018-05-18T19:15:52.169Z,62.55
2018-05-18T19:18:19.581Z,63.03
2018-05-18T19:20:47.052Z,63.71
2018-05-18T19:23:14.527Z,63.52
2018-05-18T19:25:41.939Z,64.19
2018-05-18T19:28:09.353Z,65.07
2018-05-18T19:30:37.901Z,65.25
2018-05-18T19:33:05.587Z,66.04
2018-05-18T19:35:33.863Z,66.13
2018-05-18T19:38:01.241Z,66.47
2018-05-18T19:40:28.676Z,67.07
2018-05-18T19:42:56.113Z,67.26
2018-05-18T19:45:23.532Z,68.20
2018-05-18T19:47:51.648Z,67.94
2018-05-18T19:50:19.038Z,68.13
2018-05-18T19:52:46.421Z,69.24
2018-05-18T19:55:13.839Z,69.37
2018-05-18T19:57:41.232Z,70.18
2018-05-18T20:00:09.615Z,70.55
2018-05-18T20:02:37.005Z,71.37
2018-05-18T20:05:04.435Z,71.66
2018-05-18T20:07:31.824Z,72.44
2018-05-18T20:09:59.220Z,72.76
2018-05-18T20:12:26.620Z,73.12
2018-05-18T20:14:54.299Z,73.28
2018-05-18T20:17:21.675Z,73.68
2018-05-18T20:19:49.131Z,73.82
2018-05-18T20:22:16.464Z,73.90
2018-05-18T20:24:44.028Z,74.14
2018-05-18T20:27:11.424Z,74.58
2018-05-18T20:29:38.813Z,74.76
2018-05-18T20:32:06.221Z,74.35
2018-05-18T20:34:33.620Z,74.25
2018-05-18T20:37:01.027Z,74.18
2018-05-18T20:39:28.425Z,74.87
2018-05-18T20:41:55.816Z,74.98
2018-05-18T20:44:23.374Z,75.98
2018-05-18T20:46:50.770Z,76.63
2018-05-18T20:49:18.436Z,76.96
2018-05-18T20:51:47.357Z,77.32
2018-05-18T20:54:14.698Z,77.28
2018-05-18T20:56:42.096Z,77.64
2018-05-18T20:59:09.732Z,78.50
2018-05-18T21:01:37.111Z,78.45
2018-05-18T21:04:04.738Z,78.22
2018-05-18T21:06:32.136Z,78.42
2018-05-18T21:08:59.599Z,78.41
2018-05-18T21:11:27.004Z,78.86
2018-05-18T21:13:55.237Z,78.77
2018-05-18T21:16:23.272Z,78.83
2018-05-18T21:18:50.665Z,79.00
2018-05-18T21:21:18.078Z,79.16
2018-05-18T21:23:45.463Z,79.49
2018-05-18T21:26:13.132Z,79.38
2018-05-18T21:28:40.532Z,79.60
2018-05-18T21:31:07.924Z,80.01
2018-05-18T21:33:35.859Z,81.93
2018-05-18T21:36:03.263Z,81.28
2018-05-18T21:38:30.663Z,81.31
2018-05-18T21:40:58.260Z,80.89
2018-05-18T21:43:25.703Z,80.69
2018-05-18T21:45:53.090Z,81.05
2018-05-18T21:48:20.500Z,80.89
2018-05-18T21:50:47.884Z,81.14
2018-05-18T21:53:15.291Z,81.32
2018-05-18T21:55:43.733Z,81.91
2018-05-18T21:58:11.180Z,81.75
2018-05-18T22:02:41.684Z,82.04
2018-05-18T22:05:09.271Z,82.39
2018-05-18T22:07:36.667Z,81.93
2018-05-18T22:10:04.127Z,81.51
2018-05-18T22:12:31.537Z,81.72
2018-05-18T22:14:59.219Z,81.81
2018-05-18T22:17:26.606Z,81.68
2018-05-18T22:19:54.802Z,81.89
2018-05-18T22:22:22.220Z,81.56
2018-05-18T22:24:49.616Z,81.72
2018-05-18T22:27:17.029Z,81.92
2018-05-18T22:29:45.461Z,82.27
2018-05-18T22:32:12.873Z,82.14
2018-05-18T22:34:40.265Z,82.65
2018-05-18T22:37:07.701Z,82.67
2018-05-18T22:39:35.371Z,82.88
2018-05-18T22:42:03.361Z,83.24
2018-05-18T22:44:30.763Z,83.05
2018-05-18T22:46:58.177Z,82.54
2018-05-18T22:49:25.575Z,83.01
2018-05-18T22:51:52.959Z,83.20
2018-05-18T22:54:20.780Z,83.70
2018-05-18T22:56:48.384Z,83.69
2018-05-18T22:59:15.792Z,83.68
2018-05-18T23:01:43.189Z,83.54
2018-05-18T23:04:11.450Z,83.29
2018-05-18T23:06:38.824Z,83.66
2018-05-18T23:09:06.232Z,83.67
2018-05-18T23:11:33.760Z,84.18
2018-05-18T23:14:01.162Z,84.31
2018-05-18T23:16:28.547Z,84.94
2018-05-18T23:18:55.953Z,85.26
2018-05-18T23:21:23.352Z,85.14
2018-05-18T23:23:50.760Z,84.73
2018-05-18T23:26:18.156Z,84.54
2018-05-18T23:28:45.711Z,84.38
2018-05-18T23:31:13.196Z,84.34
2018-05-18T23:33:41.226Z,84.39
2018-05-18T23:36:08.612Z,85.47
2018-05-18T23:38:36.333Z,85.69
2018-05-18T23:41:03.737Z,85.48
2018-05-18T23:43:31.155Z,85.13
2018-05-18T23:45:58.650Z,84.90
2018-05-18T23:48:26.054Z,84.94
2018-05-18T23:50:53.536Z,84.82
2018-05-18T23:53:20.926Z,84.95
2018-05-18T23:55:48.988Z,85.52
2018-05-18T23:58:16.396Z,85.56
